Time;durP1;ratioP1;P1;durP2;ratioP2;P2;SDS_P1;SDS_P2;PMS_P1;PMS_P2;Temp;Humidity;BMP_temperature;BMP_pressure;BME280_temperature;BME280_humidity;BME280_pressure;Samples;Min_cycle;Max_cycle;Signal;HPM_P1;HPM_P2
2021/05/28 00:00:37;;;;;;;;;;;10.40;99.90;;;;;;4991913;28;20312;-77
2021/05/28 00:03:03;;;;;;;;;;;10.50;99.90;;;;;;4974642;28;19909;-77
2021/05/28 00:05:28;;;;;;;;;;;10.50;99.90;;;;;;4974400;28;20354;-77
2021/05/28 00:07:55;;;;;;;;;;;10.60;99.90;;;;;;4992003;28;19905;-77
2021/05/28 00:10:20;;;;;;;;;;;10.70;99.90;;;;;;4991434;28;19906;-77
2021/05/28 00:12:45;;;;;;;;;;;10.70;99.90;;;;;;4991716;28;20328;-78
2021/05/28 00:15:13;;;;;;;;;;;10.70;99.90;;;;;;4991528;28;19997;-77
2021/05/28 00:17:39;;;;;;;;;;;10.80;99.90;;;;;;4974352;28;19956;-77
2021/05/28 00:20:05;;;;;;;;;;;10.90;99.90;;;;;;4991382;28;24077;-77
2021/05/28 00:22:31;;;;;;;;;;;10.90;99.90;;;;;;4991681;28;25141;-77
2021/05/28 00:24:56;;;;;;;;;;;10.90;99.90;;;;;;4977396;28;20000;-76
2021/05/28 00:27:23;;;;;;;;;;;10.90;99.90;;;;;;4995347;28;19910;-77
2021/05/28 00:29:48;;;;;;;;;;;10.90;99.90;;;;;;4977418;28;19956;-77
2021/05/28 00:32:14;;;;;;;;;;;10.90;99.90;;;;;;4995356;28;25108;-77
2021/05/28 00:34:39;;;;;;;;;;;10.90;99.90;;;;;;4978025;28;19913;-77
2021/05/28 00:37:05;;;;;;;;;;;10.90;99.90;;;;;;4977851;28;20313;-77
2021/05/28 00:39:30;;;;;;;;;;;10.80;99.90;;;;;;4995269;28;19912;-77
2021/05/28 00:41:56;;;;;;;;;;;10.80;99.90;;;;;;4977321;28;19912;-77
2021/05/28 00:44:22;;;;;;;;;;;10.80;99.90;;;;;;4995379;28;19916;-77
2021/05/28 00:46:48;;;;;;;;;;;10.70;99.90;;;;;;4994947;28;19910;-77
2021/05/28 00:49:13;;;;;;;;;;;10.60;99.90;;;;;;4976992;28;19917;-77
2021/05/28 00:51:39;;;;;;;;;;;10.60;99.90;;;;;;4977270;28;19916;-77
2021/05/28 00:54:04;;;;;;;;;;;10.50;99.90;;;;;;4994583;28;19948;-77
2021/05/28 00:56:30;;;;;;;;;;;10.60;99.90;;;;;;4978127;28;20373;-77
2021/05/28 00:58:57;;;;;;;;;;;10.50;99.90;;;;;;4977896;28;19906;-77
2021/05/28 01:01:23;;;;;;;;;;;10.40;99.90;;;;;;4978295;28;20401;-77
2021/05/28 01:03:48;;;;;;;9.75;6.65;;;10.40;99.90;;;;;;4995336;28;19945;-77
2021/05/28 01:06:14;;;;;;;12.50;7.30;;;10.40;99.90;;;;;;4995544;28;20035;-77
2021/05/28 01:08:39;;;;;;;;;;;10.40;99.90;;;;;;4977909;28;19964;-77
2021/05/28 01:11:05;;;;;;;;;;;10.30;99.90;;;;;;4995456;28;19906;-77
2021/05/28 01:13:30;;;;;;;13.60;6.10;;;10.20;99.90;;;;;;4995510;28;19906;-77
2021/05/28 01:15:56;;;;;;;;;;;10.30;99.90;;;;;;4995516;28;19906;-77
2021/05/28 01:18:21;;;;;;;;;;;10.20;99.90;;;;;;4994538;28;19906;-77
2021/05/28 01:20:47;;;;;;;;;;;10.20;99.90;;;;;;4977810;28;20009;-77
2021/05/28 01:23:12;;;;;;;;;;;10.00;99.90;;;;;;4977448;28;20384;-77
2021/05/28 01:25:39;;;;;;;;;;;9.90;99.90;;;;;;4993636;28;19910;-77
2021/05/28 01:28:04;;;;;;;;;;;9.90;99.90;;;;;;4976410;28;19910;-77
2021/05/28 01:30:30;;;;;;;;;;;9.70;99.90;;;;;;4993386;28;19906;-77
2021/05/28 01:32:55;;;;;;;;;;;9.70;99.90;;;;;;4977253;28;19910;-76
2021/05/28 01:35:21;;;;;;;;;;;9.70;99.90;;;;;;4993510;28;19906;-77
2021/05/28 01:37:47;;;;;;;;;;;9.60;99.90;;;;;;4994230;28;19913;-77
2021/05/28 01:40:14;;;;;;;;;;;9.60;99.90;;;;;;4994343;28;19905;-77
2021/05/28 01:42:39;;;;;;;;;;;9.60;99.90;;;;;;4977137;28;24075;-77
2021/05/28 01:45:05;;;;;;;;;;;9.60;99.90;;;;;;4982999;28;19920;-77
2021/05/28 01:47:31;;;;;;;;;;;9.70;99.90;;;;;;4995058;28;20411;-77
2021/05/28 01:49:57;;;;;;;;;;;9.80;99.90;;;;;;4993392;28;20000;-77
2021/05/28 01:52:23;;;;;;;;;;;9.90;99.90;;;;;;4994541;28;20304;-78
2021/05/28 01:54:49;;;;;;;;;;;9.90;99.90;;;;;;4994200;28;19910;-77
2021/05/28 01:57:14;;;;;;;;;;;9.90;99.90;;;;;;4994315;28;20292;-77
2021/05/28 01:59:41;;;;;;;;;;;9.90;99.90;;;;;;4992604;28;24065;-77
2021/05/28 02:02:07;;;;;;;;;;;9.90;99.90;;;;;;4993323;28;20369;-76
2021/05/28 02:04:33;;;;;;;;;;;9.80;99.90;;;;;;4993174;28;19906;-77
2021/05/28 02:06:58;;;;;;;;;;;9.80;99.90;;;;;;4994100;28;19905;-76
2021/05/28 02:09:24;;;;;;;;;;;9.80;99.90;;;;;;4992920;28;24077;-76
2021/05/28 02:11:49;;;;;;;;;;;9.80;99.90;;;;;;4993001;28;19955;-77
2021/05/28 02:14:15;;;;;;;;;;;9.80;99.90;;;;;;4994149;28;24069;-76
2021/05/28 02:16:41;;;;;;;;;;;9.80;99.90;;;;;;4992784;28;19910;-76
2021/05/28 02:19:08;;;;;;;;;;;9.80;99.90;;;;;;4992282;28;19913;-76
2021/05/28 02:21:33;;;;;;;;;;;9.80;99.90;;;;;;4993779;28;20324;-76
2021/05/28 02:23:59;;;;;;;;;;;9.80;99.90;;;;;;4993160;28;19917;-76
2021/05/28 02:26:24;;;;;;;;;;;9.90;99.90;;;;;;4993612;28;19906;-76
2021/05/28 02:28:50;;;;;;;;;;;9.90;99.90;;;;;;4993428;28;19916;-76
2021/05/28 02:31:15;;;;;;;;;;;9.90;99.90;;;;;;4993169;28;19906;-77
2021/05/28 02:33:41;;;;;;;;;;;9.80;99.90;;;;;;4993235;28;19956;-76
2021/05/28 02:36:07;;;;;;;;;;;9.90;99.90;;;;;;4992425;28;19906;-76
2021/05/28 02:38:32;;;;;;;;;;;9.90;99.90;;;;;;4992892;28;19905;-76
2021/05/28 02:40:58;;;;;;;;;;;9.90;99.90;;;;;;4992706;28;20001;-77
2021/05/28 02:43:24;;;;;;;;;;;9.90;99.90;;;;;;4992663;28;19909;-76
2021/05/28 02:45:50;;;;;;;;;;;9.90;99.90;;;;;;4991115;28;19914;-76
2021/05/28 02:48:15;;;;;;;;;;;10.00;99.90;;;;;;4992239;28;20103;-76
2021/05/28 02:50:41;;;;;;;;;;;10.00;99.90;;;;;;4992019;28;19905;-76
2021/05/28 02:53:06;;;;;;;;;;;10.00;99.90;;;;;;4991892;28;25134;-76
2021/05/28 02:55:32;;;;;;;;;;;10.10;99.90;;;;;;4990886;28;19906;-76
2021/05/28 02:57:57;;;;;;;;;;;10.00;99.90;;;;;;4992203;28;19905;-76
2021/05/28 03:00:23;;;;;;;;;;;10.00;99.90;;;;;;4992005;28;19905;-76
2021/05/28 03:02:49;;;;;;;;;;;10.00;99.90;;;;;;4992161;28;19910;-76
2021/05/28 03:05:14;;;;;;;;;;;10.00;99.90;;;;;;4992327;28;19905;-76
2021/05/28 03:07:40;;;;;;;;;;;10.00;99.90;;;;;;4992275;28;19953;-77
2021/05/28 03:10:06;;;;;;;;;;;10.00;99.90;;;;;;4990919;28;19953;-76
2021/05/28 03:12:31;;;;;;;;;;;10.00;99.90;;;;;;4992160;28;19917;-77
2021/05/28 03:14:57;;;;;;;;;;;10.00;99.90;;;;;;4992479;28;19906;-76
2021/05/28 03:17:22;;;;;;;;;;;10.00;99.90;;;;;;4992278;28;20345;-76
2021/05/28 03:19:49;;;;;;;;;;;10.10;99.90;;;;;;4991166;28;19906;-76
2021/05/28 03:24:40;;;;;;;;;;;10.00;99.90;;;;;;4992249;28;19992;-76
2021/05/28 03:27:06;;;;;;;;;;;10.00;99.90;;;;;;4990861;28;20050;-76
2021/05/28 03:29:31;;;;;;;;;;;10.00;99.90;;;;;;4990408;28;19928;-76
2021/05/28 03:31:57;;;;;;;;;;;10.10;99.90;;;;;;4991851;28;20286;-76
2021/05/28 03:34:22;;;;;;;;;;;10.10;99.90;;;;;;4991588;28;19996;-77
2021/05/28 03:36:48;;;;;;;;;;;10.10;99.90;;;;;;4991800;28;20100;-77
2021/05/28 03:39:14;;;;;;;;;;;10.10;99.90;;;;;;4991789;28;20354;-77
2021/05/28 03:41:39;;;;;;;;;;;10.10;99.90;;;;;;4991750;28;19906;-76
2021/05/28 03:44:05;;;;;;;;;;;10.10;99.90;;;;;;4990939;28;20288;-76
2021/05/28 03:46:30;;;;;;;;;;;10.10;99.90;;;;;;4974521;28;25011;-76
2021/05/28 03:48:56;;;;;;;;;;;10.20;99.90;;;;;;4974128;28;20454;-77
2021/05/28 03:51:21;;;;;;;;;;;10.20;99.90;;;;;;4991150;28;19906;-76
2021/05/28 03:53:48;;;;;;;;;;;10.20;99.90;;;;;;4991595;28;19909;-76
2021/05/28 03:56:13;;;;;;;;;;;10.20;99.90;;;;;;4973978;28;19949;-76
2021/05/28 03:58:39;;;;;;;;;;;10.30;99.90;;;;;;4993960;28;19949;-76
2021/05/28 04:01:04;;;;;;;;;;;10.30;99.90;;;;;;4980720;28;19961;-77
2021/05/28 04:03:30;;;;;;;;;;;10.40;99.90;;;;;;4980993;28;19913;-76
2021/05/28 04:05:56;;;;;;;;;;;10.40;99.90;;;;;;4998280;28;24059;-76
2021/05/28 04:08:21;;;;;;;;;;;10.40;99.90;;;;;;4980696;28;20428;-77
2021/05/28 04:10:47;;;;;;;;;;;10.40;99.90;;;;;;4980899;28;24111;-76
2021/05/28 04:13:13;;;;;;;;;;;10.50;99.90;;;;;;4980951;28;24046;-76
2021/05/28 04:15:38;;;;;;;;;;;10.40;99.90;;;;;;4998959;28;19929;-76
2021/05/28 04:18:04;;;;;;;;;;;10.40;99.90;;;;;;4981253;28;20361;-76
2021/05/28 04:20:30;;;;;;;;;;;10.40;99.90;;;;;;4998272;28;19905;-76
2021/05/28 04:22:55;;;;;;;;;;;10.50;99.90;;;;;;4998774;28;19984;-76
2021/05/28 04:25:20;;;;;;;;;;;10.50;99.90;;;;;;4981194;28;19905;-76
2021/05/28 04:27:46;;;;;;;;;;;10.60;99.90;;;;;;4981597;28;19937;-76
2021/05/28 04:30:12;;;;;;;;;;;10.80;99.90;;;;;;4998641;28;19956;-76
2021/05/28 04:32:37;;;;;;;;;;;10.90;99.90;;;;;;4981229;28;20362;-76
2021/05/28 04:35:03;;;;;;;;;;;11.20;99.90;;;;;;4998289;28;19905;-76
2021/05/28 04:37:29;;;;;;;;;;;11.40;99.90;;;;;;4980995;28;20285;-77
2021/05/28 04:39:54;;;;;;;13.30;5.90;;;11.40;99.90;;;;;;4998445;28;24243;-76
2021/05/28 04:42:20;;;;;;;7.15;4.72;;;11.70;99.90;;;;;;4981169;28;20120;-76
2021/05/28 04:44:46;;;;;;;10.32;5.53;;;11.80;99.90;;;;;;4998066;28;20460;-76
2021/05/28 04:47:12;;;;;;;9.95;6.10;;;12.40;99.90;;;;;;4996986;28;20018;-77
2021/05/28 04:49:37;;;;;;;15.80;6.20;;;12.90;99.90;;;;;;4996482;28;20034;-77
2021/05/28 04:52:03;;;;;;;9.05;5.53;;;13.90;99.90;;;;;;4997415;28;20057;-76
2021/05/28 04:54:29;;;;;;;10.35;5.75;;;14.30;99.90;;;;;;4997318;28;20033;-77
2021/05/28 04:56:54;;;;;;;9.33;3.93;;;13.70;99.90;;;;;;4979812;28;20429;-76
2021/05/28 04:59:20;;;;;;;;;;;13.40;99.90;;;;;;4996400;28;19905;-77
2021/05/28 05:01:45;;;;;;;10.25;4.90;;;13.20;99.90;;;;;;4979727;28;19916;-76
2021/05/28 05:04:11;;;;;;;8.63;4.97;;;13.10;99.90;;;;;;4979562;28;20297;-76
2021/05/28 05:06:36;;;;;;;8.80;4.55;;;12.70;99.90;;;;;;4997130;28;20031;-76
2021/05/28 05:09:03;;;;;;;4.80;3.80;;;12.70;99.90;;;;;;4996890;28;20285;-76
2021/05/28 05:11:28;;;;;;;;;;;13.30;99.90;;;;;;4993409;28;19909;-76
2021/05/28 05:13:54;;;;;;;;;;;13.70;99.90;;;;;;4994335;28;19921;-76
2021/05/28 05:16:20;;;;;;;;;;;13.50;99.90;;;;;;4976664;28;19993;-76
2021/05/28 05:18:45;;;;;;;;;;;13.20;99.90;;;;;;4976241;28;19969;-76
2021/05/28 05:21:11;;;;;;;;;;;12.80;99.90;;;;;;4976768;28;19933;-76
2021/05/28 05:23:36;;;;;;;;;;;12.90;99.90;;;;;;4976986;28;19913;-76
2021/05/28 05:26:02;;;;;;;;;;;13.00;99.90;;;;;;4993306;28;19972;-77
2021/05/28 05:28:27;;;;;;;8.63;4.40;;;13.70;99.90;;;;;;4992551;28;19917;-76
2021/05/28 05:30:53;;;;;;;6.32;3.90;;;16.00;99.90;;;;;;4975904;28;20062;-76
2021/05/28 05:33:18;;;;;;;8.82;4.45;;;18.90;99.90;;;;;;4993429;28;20490;-76
2021/05/28 05:35:44;;;;;;;5.70;4.03;;;19.50;99.90;;;;;;4973073;28;20061;-76
2021/05/28 05:38:09;;;;;;;8.30;3.70;;;20.40;99.90;;;;;;4975998;28;20026;-77
2021/05/28 05:40:36;;;;;;;9.68;4.57;;;21.60;99.90;;;;;;4973063;28;20496;-77
2021/05/28 05:43:02;;;;;;;6.70;4.80;;;23.20;99.90;;;;;;4993954;28;20089;-78
2021/05/28 05:45:28;;;;;;;7.85;4.15;;;23.20;99.90;;;;;;4991616;28;20262;-77
2021/05/28 05:47:53;;;;;;;6.70;3.90;;;22.70;99.90;;;;;;4997600;28;20486;-77
2021/05/28 05:50:19;;;;;;;8.23;4.53;;;22.80;99.50;;;;;;4976640;28;20034;-77
2021/05/28 05:52:44;;;;;;;12.20;4.35;;;22.20;99.60;;;;;;4973353;28;20026;-77
2021/05/28 05:55:11;;;;;;;4.43;3.35;;;22.30;99.90;;;;;;4989599;28;20034;-77
2021/05/28 05:57:36;;;;;;;6.80;4.23;;;22.00;99.90;;;;;;4991110;28;20097;-77
2021/05/28 06:00:05;;;;;;;10.70;4.38;;;21.60;99.90;;;;;;4992830;28;20257;-77
2021/05/28 06:02:32;;;;;;;7.55;3.78;;;22.30;99.70;;;;;;4968777;28;20085;-78
2021/05/28 06:04:57;;;;;;;;;;;23.80;97.90;;;;;;4993979;28;20058;-77
2021/05/28 06:07:23;;;;;;;8.00;3.90;;;23.30;96.70;;;;;;4993389;28;20318;-77
2021/05/28 06:09:48;;;;;;;7.65;4.05;;;22.70;97.20;;;;;;4975724;28;20076;-77
2021/05/28 06:12:14;;;;;;;5.65;3.50;;;24.50;95.20;;;;;;4992428;28;20290;-78
2021/05/28 06:14:39;;;;;;;8.05;3.75;;;26.00;93.10;;;;;;4989807;28;20027;-77
2021/05/28 06:17:05;;;;;;;5.50;3.20;;;26.50;89.60;;;;;;4975944;28;20027;-77
2021/05/28 06:19:30;;;;;;;8.03;3.67;;;27.40;84.50;;;;;;4976899;28;20273;-78
2021/05/28 06:21:56;;;;;;;5.22;3.80;;;27.00;80.10;;;;;;4993828;28;20508;-78
2021/05/28 06:24:22;;;;;;;5.73;3.63;;;25.10;81.40;;;;;;4994734;28;20033;-78
2021/05/28 06:26:47;;;;;;;;;;;25.20;83.00;;;;;;4977310;28;20120;-78
2021/05/28 06:29:13;;;;;;;7.10;3.40;;;23.60;87.70;;;;;;4991950;28;20005;-78
2021/05/28 06:31:39;;;;;;;5.50;3.60;;;23.00;87.80;;;;;;4993839;28;20023;-78
2021/05/28 06:34:04;;;;;;;7.63;3.67;;;24.60;86.30;;;;;;4977196;28;20083;-78
2021/05/28 06:36:30;;;;;;;6.30;3.45;;;25.20;86.00;;;;;;4994380;28;20419;-78
2021/05/28 06:38:56;;;;;;;4.78;3.20;;;26.40;83.40;;;;;;4976604;28;20370;-78
2021/05/28 06:41:22;;;;;;;3.65;3.00;;;27.30;75.90;;;;;;4993756;28;20101;-78
2021/05/28 06:43:48;;;;;;;5.18;3.72;;;27.50;78.60;;;;;;4976878;28;20118;-78
2021/05/28 06:46:14;;;;;;;5.20;3.83;;;24.70;78.30;;;;;;4993782;28;20046;-78
2021/05/28 06:48:40;;;;;;;;;;;24.60;80.80;;;;;;4993746;28;20026;-78
2021/05/28 06:51:05;;;;;;;;;;;24.80;81.80;;;;;;4994452;28;19906;-78
2021/05/28 06:53:31;;;;;;;;;;;25.60;81.90;;;;;;4976656;28;19964;-78
2021/05/28 06:55:56;;;;;;;;;;;26.60;81.30;;;;;;4977252;28;19912;-79
2021/05/28 06:58:22;;;;;;;;;;;27.00;75.00;;;;;;4994682;28;20369;-78
2021/05/28 07:00:48;;;;;;;9.80;5.90;;;25.70;74.00;;;;;;4994830;28;19909;-79
2021/05/28 07:03:13;;;;;;;7.57;5.23;;;24.60;83.00;;;;;;4993942;28;20470;-78
2021/05/28 07:05:40;;;;;;;10.80;6.17;;;26.70;76.10;;;;;;4976022;28;20030;-78
2021/05/28 07:08:06;;;;;;;7.40;5.18;;;27.20;75.70;;;;;;4995002;28;20440;-78
2021/05/28 07:10:32;;;;;;;;;;;29.00;72.40;;;;;;4976381;28;20061;-78
2021/05/28 07:12:58;;;;;;;10.20;5.50;;;27.60;71.80;;;;;;4978477;28;20384;-78
2021/05/28 07:15:23;;;;;;;9.57;6.10;;;27.00;73.80;;;;;;4993504;28;20038;-78
2021/05/28 07:17:49;;;;;;;9.10;5.87;;;27.80;70.90;;;;;;4993516;28;20034;-78
2021/05/28 07:20:16;;;;;;;8.07;5.53;;;28.70;73.10;;;;;;4976048;28;20049;-78
2021/05/28 07:22:41;;;;;;;8.32;5.85;;;29.40;69.20;;;;;;4993490;28;20077;-78
2021/05/28 07:25:08;;;;;;;7.93;5.57;;;30.50;66.00;;;;;;4975830;28;20034;-78
2021/05/28 07:27:33;;;;;;;;;;;27.50;66.50;;;;;;4993516;28;20379;-78
2021/05/28 07:30:01;;;;;;;;;;;23.40;73.90;;;;;;4976482;28;19913;-78
2021/05/28 07:32:27;;;;;;;7.95;5.43;;;20.90;82.00;;;;;;4975497;28;19984;-77
2021/05/28 07:34:52;;;;;;;;;;;18.50;94.10;;;;;;4992564;28;20030;-77
2021/05/28 07:37:17;;;;;;;;;;;18.10;99.90;;;;;;4993412;28;19906;-80
2021/05/28 07:39:43;;;;;;;;;;;18.80;99.90;;;;;;4975487;28;20274;-77
2021/05/28 07:42:09;;;;;;;;;;;19.00;99.90;;;;;;4992772;28;19968;-77
2021/05/28 07:44:34;;;;;;;;;;;18.30;99.90;;;;;;4991041;28;19918;-77
2021/05/28 07:47:00;;;;;;;;;;;18.30;99.90;;;;;;4990771;28;19906;-77
2021/05/28 07:49:26;;;;;;;;;;;21.10;99.90;;;;;;4991339;28;19956;-79
2021/05/28 07:51:51;;;;;;;;;;;23.10;97.60;;;;;;4992866;28;19917;-78
2021/05/28 07:54:17;;;;;;;;;;;24.40;92.70;;;;;;4993688;28;19905;-78
2021/05/28 07:56:42;;;;;;;;;;;25.40;88.00;;;;;;4993496;28;20365;-78
2021/05/28 07:59:08;;;;;;;;;;;26.20;82.60;;;;;;4993318;28;19906;-77
2021/05/28 08:01:34;;;;;;;;;;;28.30;80.10;;;;;;4993658;28;19910;-78
2021/05/28 08:03:59;;;;;;;;;;;26.60;75.60;;;;;;4995507;28;19906;-78
2021/05/28 08:06:25;;;;;;;;;;;25.60;78.40;;;;;;4995554;28;19913;-78
2021/05/28 08:08:51;;;;;;;;;;;26.20;74.30;;;;;;4977294;28;19913;-78
2021/05/28 08:11:16;;;;;;;;;;;25.30;75.60;;;;;;4977263;28;19906;-78
2021/05/28 08:13:42;;;;;;;;;;;21.80;84.90;;;;;;4976564;28;19906;-78
2021/05/28 08:16:07;;;;;;;;;;;20.00;92.10;;;;;;4994370;28;19913;-77
2021/05/28 08:18:33;;;;;;;;;;;19.30;95.50;;;;;;4992435;28;19905;-77
2021/05/28 08:21:00;;;;;;;5.70;3.63;;;18.30;97.90;;;;;;4991927;28;19909;-77
2021/05/28 08:23:26;;;;;;;;;;;17.60;99.90;;;;;;4992434;28;20058;-77
2021/05/28 08:25:51;;;;;;;5.40;2.80;;;16.80;99.90;;;;;;4974827;28;19941;-77
2021/05/28 08:28:18;;;;;;;9.77;4.00;;;17.30;99.90;;;;;;4991782;28;20019;-77
2021/05/28 08:30:44;;;;;;;;;;;19.70;99.90;;;;;;4993497;28;20030;-78
2021/05/28 08:33:13;;;;;;;;;;;22.80;96.70;;;;;;4994815;28;19910;-78
2021/05/28 08:35:39;;;;;;;;;;;24.50;90.30;;;;;;4977392;28;19906;-78
2021/05/28 08:38:04;;;;;;;;;;;24.70;84.40;;;;;;4995401;28;20012;-77
2021/05/28 08:40:32;;;;;;;4.30;3.10;;;24.70;87.70;;;;;;4977018;28;20448;-79
2021/05/28 08:43:00;;;;;;;4.35;2.50;;;26.70;76.60;;;;;;4994654;28;20101;-79
2021/05/28 08:45:27;;;;;;;5.40;2.70;;;27.20;73.00;;;;;;4994571;28;20056;-78
2021/05/28 08:47:53;;;;;;;3.22;2.42;;;27.60;74.40;;;;;;4981107;28;19973;-78
2021/05/28 08:50:24;;;;;;;2.70;2.50;;;26.40;72.60;;;;;;4997815;28;20078;-78
2021/05/28 08:52:50;;;;;;;3.67;2.50;;;26.80;71.70;;;;;;4980238;28;20122;-78
2021/05/28 08:55:15;;;;;;;4.63;2.60;;;25.40;72.80;;;;;;4998110;28;20058;-78
2021/05/28 08:57:41;;;;;;;2.45;2.25;;;26.70;75.30;;;;;;4997304;28;20544;-76
2021/05/28 09:00:07;;;;;;;;;;;26.20;70.20;;;;;;4995656;28;20490;-78
2021/05/28 09:02:35;;;;;;;3.83;2.90;;;27.70;70.20;;;;;;4998146;28;20373;-78
2021/05/28 09:05:06;;;;;;;3.33;2.25;;;27.60;66.20;;;;;;4997283;28;20033;-76
2021/05/28 09:07:32;;;;;;;4.35;2.47;;;27.10;68.90;;;;;;4995110;28;20106;-76
2021/05/28 09:09:57;;;;;;;;;;;26.80;67.20;;;;;;4995747;28;20061;-78
2021/05/28 09:12:29;;;;;;;4.83;1.57;;;25.60;69.60;;;;;;4998822;28;20049;-78
2021/05/28 09:14:55;;;;;;;1.90;1.42;;;26.60;71.30;;;;;;4996025;28;20036;-78
2021/05/28 09:17:20;;;;;;;2.23;2.13;;;27.50;63.30;;;;;;4980970;28;20022;-78
2021/05/28 09:19:59;;;;;;;2.13;1.73;;;27.00;65.70;;;;;;4980091;28;20081;-78
2021/05/28 09:22:36;;;;;;;2.72;1.92;;;26.30;66.80;;;;;;4997792;28;20030;-78
2021/05/28 09:25:02;;;;;;;6.32;2.03;;;25.80;65.20;;;;;;4979818;28;20030;-78
2021/05/28 09:27:33;;;;;;;1.40;1.30;;;24.40;68.90;;;;;;4979756;28;20038;-77
2021/05/28 09:30:11;;;;;;;3.55;1.58;;;24.50;67.40;;;;;;4996886;28;20022;-78
2021/05/28 09:32:39;;;;;;;9.95;2.10;;;24.10;76.40;;;;;;4997800;28;20037;-78
2021/05/28 09:35:09;;;;;;;1.92;1.73;;;24.00;68.60;;;;;;4979389;28;20387;-76
2021/05/28 09:37:35;;;;;;;2.08;1.88;;;24.50;73.20;;;;;;4997098;28;20019;-78
2021/05/28 09:40:06;;;;;;;1.90;1.67;;;24.30;69.90;;;;;;4979820;28;20029;-78
2021/05/28 09:42:51;;;;;;;2.30;2.03;;;24.40;70.00;;;;;;4979570;28;20085;-78
2021/05/28 09:45:20;;;;;;;;;;;24.90;72.10;;;;;;4997515;28;20038;-78
2021/05/28 09:47:45;;;;;;;;;;;24.40;69.30;;;;;;4997523;28;19964;-78
2021/05/28 09:50:13;;;;;;;5.40;2.10;;;24.40;75.30;;;;;;4979552;28;19910;-78
2021/05/28 09:52:39;;;;;;;;;;;24.30;73.20;;;;;;4979920;28;20030;-77
2021/05/28 09:55:04;;;;;;;;;;;22.50;72.60;;;;;;4997918;28;20420;-78
2021/05/28 09:57:40;;;;;;;1.30;1.00;;;23.10;75.70;;;;;;4979107;28;19913;-78
2021/05/28 10:00:28;;;;;;;3.47;2.03;;;21.70;75.50;;;;;;4978500;28;20084;-78
2021/05/28 10:03:09;;;;;;;;;;;21.80;76.60;;;;;;4980067;28;20061;-78
2021/05/28 10:05:35;;;;;;;;;;;21.90;82.20;;;;;;4980318;28;20292;-78
2021/05/28 10:08:01;;;;;;;;;;;22.30;78.20;;;;;;4997964;28;19910;-78
2021/05/28 10:10:27;;;;;;;5.25;2.05;;;22.10;80.60;;;;;;4997409;28;19913;-78
2021/05/28 10:12:52;;;;;;;3.50;1.57;;;22.40;80.70;;;;;;4996611;28;20030;-78
2021/05/28 10:15:18;;;;;;;;;;;22.80;76.90;;;;;;4979741;28;20022;-78
2021/05/28 10:17:43;;;;;;;2.90;2.13;;;22.20;75.20;;;;;;4979027;28;19992;-77
2021/05/28 10:20:09;;;;;;;3.17;2.03;;;22.40;81.20;;;;;;4996728;28;20030;-78
2021/05/28 10:22:35;;;;;;;2.00;1.90;;;23.20;75.70;;;;;;4979024;28;20030;-77
2021/05/28 10:25:06;;;;;;;;;;;22.50;77.20;;;;;;4996560;28;20036;-78
2021/05/28 10:27:32;;;;;;;;;;;22.20;80.70;;;;;;4996511;28;19913;-78
2021/05/28 10:29:58;;;;;;;;;;;23.30;74.00;;;;;;4996964;28;19906;-78
2021/05/28 10:32:24;;;;;;;;;;;25.90;72.30;;;;;;4979974;28;20365;-78
2021/05/28 10:35:09;;;;;;;4.75;1.85;;;26.10;69.80;;;;;;4979479;28;19929;-77
2021/05/28 10:37:36;;;;;;;1.85;1.65;;;26.00;74.60;;;;;;4979103;28;20508;-78
2021/05/28 10:40:03;;;;;;;2.67;1.75;;;27.00;65.00;;;;;;4997797;28;20038;-77
2021/05/28 10:42:29;;;;;;;;;;;27.00;63.90;;;;;;4998341;28;20076;-78
2021/05/28 10:44:54;;;;;;;;;;;27.30;67.30;;;;;;4980331;28;19973;-78
2021/05/28 10:47:20;;;;;;;;;;;26.80;63.60;;;;;;4980545;28;19906;-78
2021/05/28 10:49:53;;;;;;;1.77;1.13;;;26.10;61.50;;;;;;4997325;28;19906;-79
2021/05/28 10:52:36;;;;;;;1.42;1.05;;;26.20;64.50;;;;;;4980837;28;20041;-80
2021/05/28 10:55:08;;;;;;;0.80;0.80;;;26.80;62.90;;;;;;4995449;28;20011;-78
2021/05/28 10:57:42;;;;;;;;;;;25.80;61.50;;;;;;4980624;28;20022;-78
2021/05/28 11:00:09;;;;;;;;;;;23.00;64.90;;;;;;4980763;28;19992;-79
2021/05/28 11:02:53;;;;;;;1.83;0.82;;;23.80;69.60;;;;;;4998336;28;19964;-80
2021/05/28 11:05:43;;;;;;;0.80;0.80;;;26.50;65.90;;;;;;4998357;28;20438;-79
2021/05/28 11:08:44;;;;;;;1.30;1.20;;;27.80;62.30;;;;;;4997221;28;20029;-78
2021/05/28 11:11:36;;;;;;;1.60;1.02;;;26.40;66.10;;;;;;4980275;28;20027;-78
2021/05/28 11:14:09;;;;;;;1.00;0.90;;;27.00;57.30;;;;;;4994905;28;20393;-79
2021/05/28 11:16:52;;;;;;;0.60;0.60;;;26.20;60.60;;;;;;4996040;28;20033;-78
2021/05/28 11:19:25;;;;;;;;;;;24.80;62.50;;;;;;4997551;28;20485;-77
2021/05/28 11:21:54;;;;;;;;;;;24.30;61.70;;;;;;4995686;28;19906;-78
2021/05/28 11:24:20;;;;;;;;;;;23.70;63.50;;;;;;4978290;28;19914;-79
2021/05/28 11:26:45;;;;;;;;;;;22.70;65.10;;;;;;4995255;28;19905;-79
2021/05/28 11:29:20;;;;;;;;;;;22.10;68.80;;;;;;4994654;28;19906;-78
2021/05/28 11:31:46;;;;;;;;;;;21.60;70.40;;;;;;4994860;28;19913;-77
2021/05/28 11:34:11;;;;;;;;;;;20.60;69.50;;;;;;4976617;28;20329;-78
2021/05/28 11:36:44;;;;;;;;;;;19.90;73.40;;;;;;4991721;28;19905;-77
2021/05/28 11:39:11;;;;;;;;;;;19.00;74.50;;;;;;4992055;28;20326;-77
2021/05/28 11:41:57;;;;;;;;;;;19.30;79.30;;;;;;4974922;28;19906;-77
2021/05/28 11:44:23;;;;;;;;;;;19.20;80.90;;;;;;4992546;28;19945;-77
2021/05/28 11:46:49;;;;;;;;;;;19.40;82.80;;;;;;4992934;28;19937;-77
2021/05/28 11:49:16;;;;;;;;;;;19.90;79.40;;;;;;4974987;28;19913;-77
2021/05/28 11:51:42;;;;;;;;;;;19.50;78.70;;;;;;4975204;28;19992;-78
2021/05/28 11:54:20;;;;;;;;;;;19.60;77.60;;;;;;4975359;28;19905;-77
2021/05/28 11:56:51;;;;;;;;;;;19.90;78.60;;;;;;4992625;28;20004;-77
2021/05/28 11:59:16;;;;;;;;;;;19.80;78.30;;;;;;4992567;28;19905;-77
2021/05/28 12:01:42;;;;;;;;;;;20.90;79.70;;;;;;4978521;28;20274;-78
2021/05/28 12:04:14;;;;;;;;;;;22.10;82.50;;;;;;4997252;28;19925;-78
2021/05/28 12:06:39;;;;;;;;;;;22.90;72.50;;;;;;4996845;28;20281;-78
2021/05/28 12:09:05;;;;;;;;;;;23.10;67.50;;;;;;4996185;28;19906;-78
2021/05/28 12:11:30;;;;;;;;;;;22.10;72.30;;;;;;4977337;28;19914;-77
2021/05/28 12:13:56;;;;;;;;;;;21.20;72.00;;;;;;4975457;28;19913;-77
2021/05/28 12:16:21;;;;;;;;;;;20.20;76.80;;;;;;4992577;28;19906;-77
2021/05/28 12:18:47;;;;;;;;;;;20.10;81.00;;;;;;4974729;28;19999;-77
2021/05/28 12:21:17;;;;;;;;;;;20.30;79.20;;;;;;4995606;28;19906;-78
2021/05/28 12:23:47;;;;;;;;;;;20.40;77.30;;;;;;4978794;28;19905;-77
2021/05/28 12:26:19;;;;;;;;;;;20.30;80.90;;;;;;4978496;28;20008;-77
2021/05/28 12:28:45;;;;;;;;;;;20.00;84.00;;;;;;4978633;28;19909;-77
2021/05/28 12:31:11;;;;;;;;;;;19.90;81.00;;;;;;4996120;28;19905;-77
2021/05/28 12:33:37;;;;;;;;;;;19.90;80.00;;;;;;4978286;28;19964;-77
2021/05/28 12:36:04;;;;;;;;;;;20.20;79.40;;;;;;4975671;28;20000;-77
2021/05/28 12:38:34;;;;;;;;;;;20.80;82.00;;;;;;4997256;28;19906;-77
2021/05/28 12:41:01;;;;;;;1.05;0.80;;;21.80;75.60;;;;;;4998301;28;19956;-78
2021/05/28 12:43:30;;;;;;;0.90;0.90;;;22.40;79.20;;;;;;4998692;28;20045;-78
2021/05/28 12:45:56;;;;;;;2.15;0.88;;;23.10;73.90;;;;;;4993461;28;20482;-78
2021/05/28 12:48:41;;;;;;;2.42;0.95;;;22.80;71.70;;;;;;4994610;28;20037;-78
2021/05/28 12:51:08;;;;;;;2.40;0.60;;;21.90;71.60;;;;;;4994896;28;20028;-77
2021/05/28 12:53:37;;;;;;;;;;;21.90;72.60;;;;;;4997042;28;20022;-77
2021/05/28 12:56:03;;;;;;;;;;;21.30;76.10;;;;;;4994897;28;19905;-78
2021/05/28 12:58:29;;;;;;;;;;;21.00;78.20;;;;;;4997750;28;19905;-78
2021/05/28 13:01:00;;;;;;;;;;;21.40;70.10;;;;;;4994766;28;20392;-77
2021/05/28 13:03:37;;;;;;;;;;;21.30;70.30;;;;;;4994614;28;20052;-77
2021/05/28 13:06:25;;;;;;;;;;;21.60;69.50;;;;;;4995591;28;20357;-77
2021/05/28 13:08:52;;;;;;;;;;;21.50;65.70;;;;;;4994801;28;19913;-77
2021/05/28 13:11:17;;;;;;;;;;;21.30;70.70;;;;;;4996228;28;20277;-79
2021/05/28 13:13:47;;;;;;;;;;;21.20;68.40;;;;;;4998886;28;19909;-79
2021/05/28 13:16:12;;;;;;;;;;;21.70;74.30;;;;;;4998879;28;19916;-78
2021/05/28 13:18:42;;;;;;;;;;;21.80;68.20;;;;;;4996746;28;20321;-77
2021/05/28 13:21:27;;;;;;;;;;;22.10;67.70;;;;;;4996241;28;19941;-77
2021/05/28 13:23:53;;;;;;;;;;;21.60;69.30;;;;;;4994061;28;19905;-77
2021/05/28 13:26:18;;;;;;;;;;;21.00;71.60;;;;;;4993410;28;20369;-78
2021/05/28 13:28:46;;;;;;;;;;;20.20;69.00;;;;;;4993392;28;19957;-77
2021/05/28 13:31:13;;;;;;;;;;;20.10;68.80;;;;;;4993273;28;19909;-79
2021/05/28 13:33:39;;;;;;;;;;;20.50;74.30;;;;;;4997540;28;20409;-79
2021/05/28 13:36:12;;;;;;;;;;;20.70;75.30;;;;;;4997879;28;19916;-79
2021/05/28 13:38:45;;;;;;;;;;;21.10;71.20;;;;;;4996742;28;20219;-78
2021/05/28 13:41:17;;;;;;;;;;;20.90;69.70;;;;;;4994003;28;19910;-77
2021/05/28 13:43:42;;;;;;;;;;;20.30;68.70;;;;;;4995047;28;19937;-78
2021/05/28 13:46:08;;;;;;;;;;;20.40;70.30;;;;;;4992059;28;19913;-78
2021/05/28 13:48:34;;;;;;;;;;;21.00;66.70;;;;;;4989049;28;19964;-78